Time;durP1;ratioP1;P1;durP2;ratioP2;P2;SDS_P1;SDS_P2;PMS_P1;PMS_P2;Temp;Humidity;BMP_temperature;BMP_pressure;BME280_temperature;BME280_humidity;BME280_pressure;Samples;Min_cycle;Max_cycle;Signal;HPM_P1;HPM_P2
2021/10/25 00:01:29;;;;;;;32.50;20.08;;;;;;;6.40;100.00;101494.31;5004420;28;20041;-84
2021/10/25 00:03:55;;;;;;;26.17;17.75;;;;;;;6.37;99.91;101488.38;4985960;28;20490;-86
2021/10/25 00:06:25;;;;;;;27.02;17.90;;;;;;;6.37;100.00;101493.72;4988234;28;20493;-85
2021/10/25 00:08:50;;;;;;;27.10;17.13;;;;;;;6.30;100.00;101488.00;4987135;28;20038;-83
2021/10/25 00:11:16;;;;;;;25.15;16.95;;;;;;;6.33;100.00;101488.63;4986580;28;20910;-85
2021/10/25 00:13:42;;;;;;;25.52;17.95;;;;;;;6.27;100.00;101485.56;4984995;28;20072;-85
2021/10/25 00:16:08;;;;;;;25.48;15.98;;;;;;;6.25;100.00;101482.19;5005402;28;20099;-86
2021/10/25 00:18:37;;;;;;;22.52;15.65;;;;;;;6.23;100.00;101478.78;5001354;28;20038;-86
2021/10/25 00:21:03;;;;;;;22.80;15.55;;;;;;;6.22;100.00;101483.28;4981107;28;20399;-84
2021/10/25 00:23:29;;;;;;;20.40;13.80;;;;;;;6.24;100.00;101484.00;4987112;28;20038;-83
2021/10/25 00:26:07;;;;;;;23.00;15.27;;;;;;;6.28;100.00;101481.94;4987886;28;20053;-85
2021/10/25 00:28:33;;;;;;;23.70;15.00;;;;;;;6.28;100.00;101477.47;5000197;28;20125;-83
2021/10/25 00:30:58;;;;;;;23.65;14.70;;;;;;;6.23;100.00;101468.97;4985250;28;20399;-85
2021/10/25 00:33:24;;;;;;;20.88;14.75;;;;;;;6.27;100.00;101478.44;4974067;28;20039;-89
2021/10/25 00:35:50;;;;;;;23.13;14.68;;;;;;;6.35;100.00;101476.97;4981283;28;20394;-87
2021/10/25 00:38:17;;;;;;;21.25;14.02;;;;;;;6.36;100.00;101476.00;4975799;28;20042;-83
2021/10/25 00:40:43;;;;;;;20.55;13.07;;;;;;;6.34;100.00;101476.13;4995583;28;20053;-85
2021/10/25 00:43:12;;;;;;;20.05;13.27;;;;;;;6.36;100.00;101482.22;4988153;28;20045;-86
2021/10/25 00:45:38;;;;;;;19.00;12.75;;;;;;;6.37;100.00;101477.72;5008629;28;20053;-84
2021/10/25 00:48:04;;;;;;;21.85;12.88;;;;;;;6.30;100.00;101472.88;4986811;28;20121;-84
2021/10/25 00:50:31;;;;;;;19.67;12.88;;;;;;;6.33;100.00;101471.78;4998275;28;20713;-85
2021/10/25 00:52:57;;;;;;;22.60;12.32;;;;;;;6.32;100.00;101476.25;4998596;28;20050;-83
2021/10/25 00:55:24;;;;;;;20.00;12.02;;;;;;;6.28;100.00;101481.94;5002077;28;20406;-85
2021/10/25 00:57:49;;;;;;;20.00;12.50;;;;;;;6.25;100.00;101468.88;4985777;28;20038;-84
2021/10/25 01:00:15;;;;;;;19.65;11.95;;;;;;;6.28;100.00;101476.63;4995819;28;20045;-85
2021/10/25 01:02:42;;;;;;;18.25;12.18;;;;;;;6.25;100.00;101474.19;4985253;28;20034;-83
2021/10/25 01:05:10;;;;;;;19.02;13.05;;;;;;;6.24;100.00;101472.47;5002896;28;20487;-83
2021/10/25 01:07:42;;;;;;;20.33;12.43;;;;;;;6.21;100.00;101470.06;5002005;28;20046;-85
2021/10/25 01:10:09;;;;;;;17.67;12.43;;;;;;;6.14;100.00;101471.50;4998580;28;20437;-86
2021/10/25 01:12:35;;;;;;;21.75;12.65;;;;;;;6.14;100.00;101466.19;4998169;28;20048;-84
2021/10/25 01:15:02;;;;;;;16.63;11.98;;;;;;;6.07;100.00;101474.66;5003068;28;20042;-85
2021/10/25 01:17:28;;;;;;;19.33;13.13;;;;;;;6.04;100.00;101461.56;4983830;28;20492;-83
2021/10/25 01:19:55;;;;;;;16.52;11.90;;;;;;;6.01;100.00;101469.81;5003581;28;20052;-86
2021/10/25 01:22:24;;;;;;;18.23;13.50;;;;;;;6.00;100.00;101468.09;4969929;28;20096;-82
2021/10/25 01:24:52;;;;;;;23.95;13.43;;;;;;;6.03;100.00;101459.00;5004090;28;20058;-87
2021/10/25 01:27:18;;;;;;;22.83;12.98;;;;;;;5.98;100.00;101462.03;4998921;28;20140;-82
2021/10/25 01:29:43;;;;;;;20.67;12.80;;;;;;;5.96;100.00;101463.97;4988146;28;20560;-82
2021/10/25 01:32:09;;;;;;;19.95;13.65;;;;;;;5.91;100.00;101462.59;4984941;28;20038;-84
2021/10/25 01:34:37;;;;;;;22.33;13.95;;;;;;;5.91;100.00;101460.78;4986379;28;20068;-84
2021/10/25 01:37:05;;;;;;;18.98;14.25;;;;;;;5.85;100.00;101451.44;4965865;28;20042;-86
2021/10/25 01:39:31;;;;;;;18.65;13.52;;;;;;;5.83;100.00;101452.53;5003686;28;20097;-86
2021/10/25 01:41:57;;;;;;;21.70;13.27;;;;;;;5.78;100.00;101444.91;5001792;28;20045;-85
2021/10/25 01:44:22;;;;;;;20.92;12.93;;;;;;;5.81;100.00;101449.13;4987119;28;20042;-87
2021/10/25 01:46:48;;;;;;;21.85;14.32;;;;;;;5.79;100.00;101445.75;4970711;28;20053;-86
2021/10/25 01:49:15;;;;;;;21.33;13.25;;;;;;;5.73;100.00;101443.56;4971830;28;20038;-85
2021/10/25 01:51:41;;;;;;;24.27;14.45;;;;;;;5.74;100.00;101442.56;4989885;28;20029;-83
2021/10/25 01:54:09;;;;;;;23.15;14.70;;;;;;;5.72;100.00;101447.16;5004856;28;20096;-85
2021/10/25 01:56:37;;;;;;;21.17;14.20;;;;;;;5.73;100.00;101446.22;4994697;28;20048;-83
2021/10/25 01:59:04;;;;;;;20.13;14.32;;;;;;;5.70;100.00;101441.97;5007369;28;20069;-83
2021/10/25 02:01:31;;;;;;;22.88;13.60;;;;;;;5.69;100.00;101439.41;5007235;28;20034;-88
2021/10/25 02:03:57;;;;;;;24.30;14.45;;;;;;;5.71;100.00;101437.47;5000893;28;20105;-85
2021/10/25 02:06:23;;;;;;;23.63;14.32;;;;;;;5.69;100.00;101440.25;4974291;28;20121;-87
2021/10/25 02:08:49;;;;;;;22.27;13.43;;;;;;;5.68;100.00;101437.72;5001521;28;20049;-86
2021/10/25 02:11:16;;;;;;;22.05;13.25;;;;;;;5.63;100.00;101430.06;4986015;28;20056;-86
2021/10/25 02:13:43;;;;;;;21.80;13.82;;;;;;;5.66;100.00;101429.84;4972791;28;20100;-84
2021/10/25 02:16:11;;;;;;;24.88;14.60;;;;;;;5.69;100.00;101428.75;4991915;28;20042;-85
2021/10/25 02:18:39;;;;;;;26.92;14.63;;;;;;;5.66;100.00;101425.34;5000625;28;20038;-84
2021/10/25 02:21:05;;;;;;;22.27;14.35;;;;;;;5.65;100.00;101430.81;4996897;28;20046;-85
2021/10/25 02:23:32;;;;;;;22.85;14.27;;;;;;;5.63;100.00;101430.91;4996579;28;20041;-85
2021/10/25 02:26:00;;;;;;;24.33;14.40;;;;;;;5.66;100.00;101424.50;5005189;28;20038;-84
2021/10/25 02:28:27;;;;;;;22.90;14.38;;;;;;;5.62;100.00;101420.41;4990007;28;20080;-83
2021/10/25 02:30:52;;;;;;;19.35;12.85;;;;;;;5.60;100.00;101420.50;4998754;28;20034;-86
2021/10/25 02:33:20;;;;;;;20.38;13.50;;;;;;;5.63;100.00;101414.94;5009225;28;20927;-85
2021/10/25 02:35:53;;;;;;;24.58;14.43;;;;;;;5.70;100.00;101412.69;4984249;28;20080;-86
2021/10/25 02:38:20;;;;;;;21.13;13.05;;;;;;;5.71;100.00;101403.72;5001395;28;20073;-85
2021/10/25 02:40:47;;;;;;;24.35;14.27;;;;;;;5.71;100.00;101402.88;4990787;28;20038;-86
2021/10/25 02:43:12;;;;;;;21.23;14.80;;;;;;;5.71;100.00;101401.03;4987069;28;20045;-84
2021/10/25 02:45:38;;;;;;;20.63;13.75;;;;;;;5.73;100.00;101400.94;5006710;28;20052;-84
2021/10/25 02:48:05;;;;;;;21.20;13.90;;;;;;;5.72;100.00;101391.25;5009020;28;20041;-82
2021/10/25 02:50:31;;;;;;;24.58;14.10;;;;;;;5.72;100.00;101399.22;5012570;28;20034;-84
2021/10/25 02:52:58;;;;;;;23.35;14.82;;;;;;;5.69;100.00;101402.13;4991344;28;20065;-83
2021/10/25 02:55:24;;;;;;;25.08;13.70;;;;;;;5.69;100.00;101405.63;4999691;28;20111;-86
2021/10/25 02:57:50;;;;;;;21.10;14.27;;;;;;;5.71;100.00;101400.19;4983665;28;20121;-83
2021/10/25 03:00:16;;;;;;;22.00;14.73;;;;;;;5.68;100.00;101400.44;4974617;28;20128;-86
2021/10/25 03:02:44;;;;;;;20.75;14.50;;;;;;;5.65;100.00;101407.69;4989418;28;20038;-84
2021/10/25 03:05:12;;;;;;;24.75;15.20;;;;;;;5.67;100.00;101399.59;5004196;28;20068;-83
2021/10/25 03:07:39;;;;;;;25.88;15.38;;;;;;;5.64;100.00;101406.00;4990697;28;20095;-84
2021/10/25 03:10:05;;;;;;;24.17;15.32;;;;;;;5.65;100.00;101404.19;4999272;28;20052;-85
2021/10/25 03:12:31;;;;;;;21.08;13.63;;;;;;;5.59;100.00;101402.00;5007894;28;20112;-87
2021/10/25 03:14:59;;;;;;;23.08;14.10;;;;;;;5.55;100.00;101400.50;4990251;28;20046;-88
2021/10/25 03:17:26;;;;;;;23.67;15.02;;;;;;;5.52;100.00;101396.25;5002283;28;20038;-84
2021/10/25 03:19:53;;;;;;;25.58;14.52;;;;;;;5.52;100.00;101398.09;4991344;28;20390;-87
2021/10/25 03:22:20;;;;;;;23.92;15.48;;;;;;;5.50;100.00;101392.91;5005469;28;20861;-87
2021/10/25 03:24:46;;;;;;;22.33;16.70;;;;;;;5.50;100.00;101400.03;4991015;28;20041;-84
2021/10/25 03:27:11;;;;;;;25.42;16.38;;;;;;;5.46;100.00;101394.06;5004975;28;20065;-85
2021/10/25 03:29:38;;;;;;;24.27;15.60;;;;;;;5.44;100.00;101390.69;4959063;28;20488;-82
2021/10/25 03:32:05;;;;;;;24.92;15.73;;;;;;;5.46;100.00;101396.72;4987025;28;20045;-83
2021/10/25 03:34:30;;;;;;;23.38;15.80;;;;;;;5.47;100.00;101392.25;4971779;28;20046;-86
2021/10/25 03:36:56;;;;;;;26.50;16.90;;;;;;;5.46;100.00;101385.25;4972015;28;20045;-85
2021/10/25 03:39:26;;;;;;;23.90;16.38;;;;;;;5.43;100.00;101381.84;5004475;28;20062;-86
2021/10/25 03:41:54;;;;;;;25.77;16.40;;;;;;;5.41;100.00;101378.47;5004153;28;20034;-82
2021/10/25 03:46:56;;;;;;;26.92;16.25;;;;;;;5.42;100.00;101385.47;5010781;28;20881;-87
2021/10/25 03:49:38;;;;;;;22.60;15.45;;;;;;;5.37;100.00;101373.47;4989934;28;20129;-83
2021/10/25 03:52:21;;;;;;;22.35;14.75;;;;;;;5.35;100.00;101380.72;4995606;28;20194;-84
2021/10/25 03:58:15;;;;;;;27.30;15.25;;;;;;;5.41;100.00;101377.63;5007674;28;20042;-83
2021/10/25 04:27:42;;;;;;;21.17;13.23;;;;;;;5.82;100.00;101361.13;5001333;28;20049;-86
2021/10/25 04:30:08;;;;;;;18.02;13.90;;;;;;;5.85;100.00;101365.34;4990045;28;20053;-82
2021/10/25 04:32:33;;;;;;;19.50;13.38;;;;;;;5.92;100.00;101369.22;5000149;28;20104;-88
2021/10/25 04:34:59;;;;;;;20.45;13.20;;;;;;;5.95;100.00;101357.50;4995121;28;20478;-88
2021/10/25 04:37:26;;;;;;;18.38;12.98;;;;;;;5.98;100.00;101357.28;4985448;28;20349;-83
2021/10/25 04:39:54;;;;;;;19.83;14.75;;;;;;;6.04;100.00;101363.00;5001991;28;20096;-83
2021/10/25 04:42:21;;;;;;;19.85;13.65;;;;;;;6.09;100.00;101355.47;4987864;28;20101;-87
2021/10/25 04:44:47;;;;;;;20.00;13.23;;;;;;;6.13;100.00;101350.75;4987767;28;20053;-84
2021/10/25 04:47:13;;;;;;;17.67;12.68;;;;;;;6.14;100.00;101354.25;4993010;28;20046;-89
2021/10/25 04:49:40;;;;;;;20.80;13.68;;;;;;;6.21;100.00;101355.44;5008095;28;20064;-82
2021/10/25 04:52:06;;;;;;;19.83;13.00;;;;;;;6.24;100.00;101353.41;4987075;28;20096;-88
2021/10/25 04:54:32;;;;;;;18.90;12.35;;;;;;;6.28;100.00;101356.69;5004647;28;20389;-86
2021/10/25 04:57:00;;;;;;;20.00;13.05;;;;;;;6.31;100.00;101348.44;4999981;28;20050;-89
2021/10/25 04:59:25;;;;;;;20.13;12.80;;;;;;;6.30;100.00;101352.03;4986905;28;20046;-85
2021/10/25 05:01:51;;;;;;;19.40;12.75;;;;;;;6.33;100.00;101354.50;4992224;28;20044;-84
2021/10/25 05:04:16;;;;;;;19.88;13.48;;;;;;;6.37;100.00;101344.44;5006044;28;20046;-84
2021/10/25 05:06:42;;;;;;;19.42;13.77;;;;;;;6.38;100.00;101346.94;5002151;28;20049;-81
2021/10/25 05:09:08;;;;;;;18.77;11.77;;;;;;;6.39;100.00;101343.34;5001814;28;20095;-85
2021/10/25 05:11:35;;;;;;;18.63;12.30;;;;;;;6.38;100.00;101349.63;5005250;28;20069;-80
2021/10/25 05:14:09;;;;;;;19.95;13.90;;;;;;;6.44;100.00;101345.63;4988795;28;20050;-84
2021/10/25 05:16:35;;;;;;;16.85;13.32;;;;;;;6.46;100.00;101341.84;5009722;28;20045;-82
2021/10/25 05:19:03;;;;;;;20.05;12.73;;;;;;;6.45;100.00;101342.84;4989899;28;20046;-82
2021/10/25 05:21:30;;;;;;;19.85;12.75;;;;;;;6.45;100.00;101342.84;5001592;28;20037;-84
2021/10/25 05:23:56;;;;;;;17.17;12.18;;;;;;;6.46;100.00;101346.34;5000751;28;20042;-84
2021/10/25 05:26:21;;;;;;;18.05;12.77;;;;;;;6.51;100.00;101347.66;4987534;28;20100;-87
2021/10/25 05:28:48;;;;;;;16.10;12.43;;;;;;;6.52;100.00;101343.19;4988277;28;20034;-84
2021/10/25 05:31:18;;;;;;;18.73;13.40;;;;;;;6.51;100.00;101342.34;4975643;28;20053;-85
2021/10/25 05:33:43;;;;;;;18.40;11.35;;;;;;;6.53;100.00;101340.41;5006000;28;20042;-84
2021/10/25 05:36:12;;;;;;;17.20;12.15;;;;;;;6.57;100.00;101340.16;5016010;28;20474;-87
2021/10/25 05:38:39;;;;;;;18.88;11.73;;;;;;;6.55;100.00;101332.25;4987117;28;20045;-84
2021/10/25 05:41:06;;;;;;;16.00;10.93;;;;;;;6.56;100.00;101331.31;4998588;28;20514;-85
2021/10/25 05:43:32;;;;;;;17.50;12.75;;;;;;;6.59;100.00;101332.84;4987450;28;21135;-82
2021/10/25 05:45:58;;;;;;;16.92;11.75;;;;;;;6.58;100.00;101329.34;5006764;28;20050;-85
2021/10/25 05:48:25;;;;;;;16.33;11.13;;;;;;;6.59;100.00;101331.06;4987947;28;20487;-85
2021/10/25 05:50:52;;;;;;;16.45;11.43;;;;;;;6.65;100.00;101325.22;4990336;28;20053;-85
2021/10/25 05:53:18;;;;;;;18.40;11.32;;;;;;;6.67;100.00;101322.41;4990920;28;20052;-81
2021/10/25 05:55:46;;;;;;;18.63;11.98;;;;;;;6.70;100.00;101324.81;5004347;28;20068;-86
2021/10/25 05:58:23;;;;;;;18.40;11.57;;;;;;;6.71;100.00;101334.53;4982574;28;20045;-85
2021/10/25 06:00:58;;;;;;;17.08;11.52;;;;;;;6.71;100.00;101334.53;5005451;28;20041;-83
2021/10/25 06:03:33;;;;;;;18.45;11.10;;;;;;;6.67;100.00;101339.25;5004993;28;20042;-84
2021/10/25 06:06:00;;;;;;;16.85;11.93;;;;;;;6.74;100.00;101336.94;5004327;28;20038;-86
2021/10/25 06:08:31;;;;;;;19.70;12.13;;;;;;;6.74;100.00;101337.78;5002730;28;20053;-88
2021/10/25 06:10:56;;;;;;;16.83;10.30;;;;;;;6.72;100.00;101328.22;4985669;28;20038;-86
2021/10/25 06:14:27;;;;;;;16.15;10.98;;;;;;;6.76;100.00;101340.31;5002860;28;20052;-86
2021/10/25 06:16:22;;;;;;;17.05;10.13;;;;;;;6.76;100.00;101334.97;4954209;28;20042;-84
2021/10/25 06:18:48;;;;;;;17.27;10.80;;;;;;;6.77;100.00;101336.69;5005247;28;20225;-82
2021/10/25 06:21:13;;;;;;;16.88;10.20;;;;;;;6.76;100.00;101341.19;5006632;28;20542;-84
2021/10/25 06:23:40;;;;;;;15.85;11.00;;;;;;;6.82;100.00;101339.84;4986888;28;20050;-83
2021/10/25 06:26:06;;;;;;;16.67;10.10;;;;;;;6.86;100.00;101332.41;5003366;28;20030;-83
2021/10/25 06:28:32;;;;;;;17.35;10.50;;;;;;;6.89;100.00;101334.84;5003009;28;20406;-86
2021/10/25 06:31:04;;;;;;;16.77;11.07;;;;;;;6.91;100.00;101324.88;4969119;28;20038;-82
2021/10/25 06:33:30;;;;;;;15.40;10.27;;;;;;;6.92;100.00;101335.41;4987609;28;20034;-82
2021/10/25 06:36:06;;;;;;;13.52;10.15;;;;;;;6.94;100.00;101328.13;5004048;28;20038;-84
2021/10/25 06:38:37;;;;;;;14.60;9.80;;;;;;;6.97;100.00;101333.22;4986375;28;20492;-82
2021/10/25 06:41:05;;;;;;;14.07;10.00;;;;;;;6.99;100.00;101331.28;4988126;28;20498;-82
2021/10/25 06:43:30;;;;;;;15.75;10.05;;;;;;;7.04;100.00;101330.03;5005315;28;20034;-88
2021/10/25 06:45:58;;;;;;;14.13;10.05;;;;;;;7.09;100.00;101326.00;4989064;28;20037;-84
2021/10/25 06:48:23;;;;;;;13.95;9.13;;;;;;;7.10;100.00;101334.84;4991178;28;20052;-84
2021/10/25 06:50:49;;;;;;;16.50;9.20;;;;;;;7.10;100.00;101337.53;5004134;28;20046;-87
2021/10/25 06:53:16;;;;;;;19.02;9.75;;;;;;;7.12;100.00;101340.91;5009226;28;20401;-86
2021/10/25 06:55:43;;;;;;;14.57;9.48;;;;;;;7.16;100.00;101340.53;4972654;28;20029;-84
2021/10/25 06:58:09;;;;;;;15.38;10.45;;;;;;;7.20;99.87;101344.63;5006681;28;20053;-87
2021/10/25 07:00:36;;;;;;;14.07;9.50;;;;;;;7.22;99.71;101341.81;4990386;28;20038;-82
2021/10/25 07:03:07;;;;;;;12.48;8.93;;;;;;;7.21;100.00;101340.16;4998883;28;20050;-84
2021/10/25 07:05:35;;;;;;;13.57;9.18;;;;;;;7.21;100.00;101340.16;5007454;28;20037;-85
2021/10/25 07:08:01;;;;;;;14.27;10.20;;;;;;;7.24;100.00;101347.91;5015701;28;20104;-84
2021/10/25 07:10:27;;;;;;;14.73;10.00;;;;;;;7.25;99.93;101341.59;5023211;28;20454;-83
2021/10/25 07:12:53;;;;;;;13.00;8.65;;;;;;;7.28;99.81;101341.34;4994550;28;20493;-84
2021/10/25 07:15:19;;;;;;;15.68;10.05;;;;;;;7.28;99.34;101343.13;5002330;28;20069;-84
2021/10/25 07:18:00;;;;;;;13.90;9.73;;;;;;;7.26;99.57;101345.94;5010817;28;20487;-88
2021/10/25 08:01:33;;;;;;;16.50;9.63;;;;;;;7.91;97.60;101357.28;4997491;28;20048;-85
2021/10/25 08:11:31;;;;;;;18.33;8.25;;;;;;;8.23;96.83;101345.63;4994584;28;20042;-83
2021/10/25 08:14:03;;;;;;;17.88;9.30;;;;;;;8.30;95.96;101352.13;4983272;28;20176;-86
2021/10/25 08:16:43;;;;;;;13.70;8.60;;;;;;;8.36;95.36;101359.59;4982528;28;20042;-86
2021/10/25 08:19:29;;;;;;;14.20;9.10;;;;;;;8.42;95.30;101355.56;4984033;28;20041;-85
2021/10/25 08:22:02;;;;;;;17.80;9.10;;;;;;;8.50;95.28;101350.38;4993054;28;20050;-85
2021/10/25 08:24:31;;;;;;;18.02;9.23;;;;;;;8.58;95.31;101353.22;5011846;28;20048;-86
2021/10/25 08:26:57;;;;;;;14.50;7.72;;;;;;;8.65;94.97;101356.19;5009597;28;20049;-90
2021/10/25 08:29:22;;;;;;;15.82;8.40;;;;;;;8.72;94.69;101360.00;4999760;28;20037;-85
2021/10/25 08:31:56;;;;;;;17.90;9.05;;;;;;;8.81;94.51;101360.03;4994119;28;20042;-82
2021/10/25 08:39:48;;;;;;;15.73;8.45;;;;;;;9.02;93.05;101362.56;4980112;28;20177;-87
2021/10/25 08:42:36;;;;;;;15.07;7.80;;;;;;;9.09;93.27;101357.50;4998332;28;20052;-86
2021/10/25 08:45:17;;;;;;;15.57;8.82;;;;;;;9.17;93.16;101354.94;4990421;28;20062;-88
2021/10/25 08:47:46;;;;;;;13.27;8.27;;;;;;;9.24;93.30;101349.91;4990811;28;20046;-87
2021/10/25 08:50:16;;;;;;;15.63;7.82;;;;;;;9.32;92.68;101357.19;4985462;28;20037;-87
2021/10/25 08:52:42;;;;;;;14.55;7.60;;;;;;;9.40;92.34;101360.00;5011069;28;20068;-87
2021/10/25 08:55:10;;;;;;;17.27;8.20;;;;;;;9.46;92.54;101354.94;4974180;28;20078;-83
2021/10/25 08:57:36;;;;;;;13.48;8.10;;;;;;;9.53;91.74;101357.06;5007428;28;20038;-88
2021/10/25 09:00:09;;;;;;;12.55;7.63;;;;;;;9.58;92.40;101352.97;5010781;28;20046;-85
2021/10/25 09:02:35;;;;;;;15.00;8.25;;;;;;;9.62;91.50;101348.97;5011215;28;20042;-88
2021/10/25 09:05:12;;;;;;;12.90;6.95;;;;;;;9.67;91.65;101345.88;5007766;28;20100;-84
2021/10/25 09:08:11;;;;;;;11.80;6.85;;;;;;;9.75;91.68;101354.03;4991796;28;20045;-86
2021/10/25 09:10:45;;;;;;;14.43;7.75;;;;;;;9.79;90.98;101350.06;4943624;28;20050;-88
2021/10/25 09:13:17;;;;;;;12.77;5.88;;;;;;;9.81;90.52;101345.44;4995073;28;20049;-84
2021/10/25 09:15:47;;;;;;;10.52;6.03;;;;;;;9.87;90.26;101352.03;5004625;28;20491;-87
2021/10/25 09:18:16;;;;;;;11.70;7.03;;;;;;;9.90;89.89;101341.88;5005076;28;20057;-85
2021/10/25 09:21:02;;;;;;;10.63;6.63;;;;;;;9.96;89.91;101334.22;5005229;28;20045;-85
2021/10/25 09:23:40;;;;;;;10.23;6.55;;;;;;;9.99;89.88;101350.84;4958528;28;20137;-86
2021/10/25 09:26:20;;;;;;;13.07;7.07;;;;;;;10.05;89.66;101339.53;4974025;28;20038;-89
2021/10/25 09:28:53;;;;;;;12.60;6.63;;;;;;;10.07;89.26;101359.03;4986616;28;20050;-86
2021/10/25 09:31:30;;;;;;;15.68;6.95;;;;;;;10.07;89.32;101353.66;4990921;28;20041;-87
2021/10/25 09:34:01;;;;;;;11.55;7.30;;;;;;;10.05;89.31;101350.28;5000382;28;20040;-90
2021/10/25 09:36:33;;;;;;;14.90;7.70;;;;;;;10.07;89.54;101361.69;5002961;28;20073;-83
2021/10/25 09:41:39;;;;;;;14.68;7.63;;;;;;;10.04;89.22;101350.41;5005200;28;20045;-87
2021/10/25 09:49:56;;;;;;;13.50;7.55;;;;;;;10.04;89.29;101348.59;5011833;28;20045;-83
2021/10/25 09:52:37;;;;;;;14.05;7.28;;;;;;;10.07;89.53;101345.63;5008971;28;20414;-85
2021/10/25 09:55:11;;;;;;;10.02;7.22;;;;;;;10.11;89.49;101344.31;4986792;28;20058;-83
2021/10/25 10:00:07;;;;;;;11.82;6.10;;;;;;;10.16;88.97;101341.19;5005909;28;20050;-86
2021/10/25 10:02:36;;;;;;;12.02;6.60;;;;;;;10.20;89.08;101352.47;5005567;28;20038;-87
2021/10/25 10:05:06;;;;;;;10.38;6.47;;;;;;;10.20;88.47;101339.91;4987616;28;20037;-88
2021/10/25 10:07:34;;;;;;;9.38;6.25;;;;;;;10.21;88.54;101348.78;4997452;28;20069;-85
2021/10/25 10:10:00;;;;;;;11.35;7.25;;;;;;;10.21;88.48;101343.41;4987864;28;20049;-88
2021/10/25 10:12:27;;;;;;;10.88;6.55;;;;;;;10.21;88.98;101349.63;5001781;28;20042;-86
2021/10/25 10:14:58;;;;;;;10.02;6.10;;;;;;;10.21;88.46;101346.09;5007277;28;20042;-87
2021/10/25 10:17:42;;;;;;;12.30;7.07;;;;;;;10.26;88.96;101341.97;4991639;28;20038;-87
2021/10/25 10:20:14;;;;;;;13.90;6.63;;;;;;;10.26;88.83;101349.19;5006780;28;20033;-84
2021/10/25 10:22:54;;;;;;;11.82;7.13;;;;;;;10.27;88.99;101351.78;4992892;28;20050;-83
2021/10/25 10:25:46;;;;;;;10.10;6.57;;;;;;;10.25;88.96;101350.19;4990544;28;20046;-87
2021/10/25 10:28:14;;;;;;;12.23;7.03;;;;;;;10.27;89.26;101348.22;4987347;28;20054;-84
2021/10/25 10:31:00;;;;;;;11.70;6.90;;;;;;;10.26;89.05;101343.81;4979552;28;20037;-85
2021/10/25 10:33:49;;;;;;;12.13;7.20;;;;;;;10.29;89.57;101343.56;4987901;28;20397;-86
2021/10/25 10:36:19;;;;;;;11.75;7.07;;;;;;;10.29;89.35;101333.66;4990849;28;20731;-88
2021/10/25 10:39:04;;;;;;;11.70;6.45;;;;;;;10.31;89.81;101330.84;4988705;28;20046;-87
2021/10/25 10:41:41;;;;;;;14.13;7.50;;;;;;;10.32;90.75;101333.38;4991615;28;20045;-86
2021/10/25 10:44:12;;;;;;;14.10;7.03;;;;;;;10.34;90.85;101333.22;4991288;28;20041;-87
2021/10/25 10:46:58;;;;;;;18.90;7.50;;;;;;;10.43;90.91;101336.84;4992434;28;20042;-89
2021/10/25 10:49:37;;;;;;;14.43;6.93;;;;;;;10.47;90.80;101328.38;4980261;28;20054;-85
2021/10/25 10:55:07;;;;;;;12.35;7.75;;;;;;;10.62;90.78;101326.00;5009282;28;20042;-88
2021/10/25 11:00:22;;;;;;;11.60;6.82;;;;;;;10.73;90.37;101335.66;4997491;28;20046;-87
2021/10/25 11:02:54;;;;;;;9.25;6.45;;;;;;;10.78;90.50;101331.53;5012739;28;20091;-86
2021/10/25 11:05:50;;;;;;;11.95;7.07;;;;;;;10.86;90.69;101322.72;5009631;28;20111;-85
2021/10/25 11:08:21;;;;;;;11.52;6.43;;;;;;;10.93;90.31;101323.78;4998812;28;20506;-85
2021/10/25 11:10:49;;;;;;;20.80;8.00;;;;;;;10.99;90.18;101328.56;5008048;28;20529;-85
2021/10/25 11:13:23;;;;;;;13.70;7.07;;;;;;;11.05;90.08;101321.72;4990143;28;20046;-85
2021/10/25 11:16:08;;;;;;;8.32;6.00;;;;;;;11.07;89.63;101319.72;5009401;28;20037;-89
2021/10/25 11:18:41;;;;;;;11.65;6.75;;;;;;;11.10;89.67;101318.56;4967708;28;20475;-87
2021/10/25 11:21:13;;;;;;;9.15;6.30;;;;;;;11.09;89.54;101317.72;4988926;28;20048;-88
2021/10/25 11:24:02;;;;;;;11.57;6.50;;;;;;;11.14;89.43;101330.69;5002797;28;20532;-84
2021/10/25 11:26:32;;;;;;;9.80;6.28;;;;;;;11.14;89.54;101322.63;4975533;28;20121;-85
2021/10/25 11:29:03;;;;;;;9.15;6.40;;;;;;;11.12;89.37;101317.41;4989064;28;20076;-83
2021/10/25 11:31:30;;;;;;;9.35;5.97;;;;;;;11.19;89.99;101317.63;4990119;28;20634;-88
2021/10/25 11:33:57;;;;;;;11.93;6.38;;;;;;;11.20;89.61;101319.31;5003331;28;20129;-84
2021/10/25 11:36:27;;;;;;;10.25;6.10;;;;;;;11.20;89.37;101312.09;4976172;28;20441;-87
2021/10/25 11:38:53;;;;;;;9.25;5.82;;;;;;;11.22;89.62;101311.94;4975935;28;20045;-86
2021/10/25 11:41:18;;;;;;;12.45;5.85;;;;;;;11.22;89.58;101309.25;4972748;28;20088;-83
2021/10/25 11:43:44;;;;;;;14.38;6.85;;;;;;;11.22;89.28;101301.19;5006586;28;20092;-88
2021/10/25 11:46:17;;;;;;;11.30;6.25;;;;;;;11.24;89.60;101304.56;5008425;28;20042;-87
2021/10/25 11:48:51;;;;;;;12.30;6.47;;;;;;;11.28;90.14;101297.91;4983076;28;20080;-86
2021/10/25 11:51:16;;;;;;;8.43;5.63;;;;;;;11.31;89.86;101289.53;5002563;28;20045;-87
2021/10/25 11:53:42;;;;;;;10.35;6.28;;;;;;;11.35;89.99;101285.50;5009307;28;20054;-86
2021/10/25 11:56:14;;;;;;;9.10;5.60;;;;;;;11.39;89.75;101288.72;4991104;28;20041;-84
2021/10/25 11:58:42;;;;;;;9.23;6.15;;;;;;;11.41;90.19;101284.88;4997786;28;20048;-87
2021/10/25 12:01:14;;;;;;;11.95;6.00;;;;;;;11.42;90.54;101278.53;4969321;28;20036;-84
2021/10/25 12:03:40;;;;;;;10.15;6.13;;;;;;;11.44;90.06;101273.81;5000198;28;20040;-87
2021/10/25 12:06:18;;;;;;;9.18;5.95;;;;;;;11.48;90.54;101283.25;4986804;28;20117;-87
2021/10/25 12:09:13;;;;;;;10.35;6.47;;;;;;;11.55;90.42;101264.66;5007897;28;20514;-87
2021/10/25 12:11:54;;;;;;;8.90;5.82;;;;;;;11.53;90.19;101280.91;4987155;28;20766;-84
2021/10/25 12:14:30;;;;;;;8.13;6.30;;;;;;;11.56;90.15;101276.25;4976655;28;20034;-83
2021/10/25 12:16:56;;;;;;;9.88;6.18;;;;;;;11.62;90.28;101272.91;5000364;28;20034;-89
2021/10/25 12:19:24;;;;;;;8.00;6.03;;;;;;;11.65;90.35;101276.16;5001023;28;20072;-86
2021/10/25 12:21:49;;;;;;;9.82;5.63;;;;;;;11.65;89.88;101270.78;5002944;28;20397;-84
2021/10/25 12:24:16;;;;;;;9.65;6.22;;;;;;;11.70;89.92;101278.34;4999120;28;20046;-86
2021/10/25 12:26:42;;;;;;;8.40;6.05;;;;;;;11.72;89.85;101266.44;4986402;28;20054;-85
2021/10/25 12:29:13;;;;;;;11.40;6.50;;;;;;;11.77;90.30;101265.97;5010019;28;20509;-86
2021/10/25 12:31:38;;;;;;;10.73;6.43;;;;;;;11.78;90.46;101273.00;4995671;28;20599;-90
2021/10/25 12:34:04;;;;;;;12.88;5.93;;;;;;;11.77;90.11;101265.97;4992666;28;20042;-88
2021/10/25 12:36:38;;;;;;;10.88;7.00;;;;;;;11.79;90.38;101263.09;5007886;28;20045;-87
2021/10/25 12:39:14;;;;;;;11.50;6.47;;;;;;;11.80;89.71;101262.94;5003433;28;20034;-89
2021/10/25 12:41:56;;;;;;;12.98;6.07;;;;;;;11.81;89.94;101255.72;4991737;28;20047;-85
2021/10/25 12:44:44;;;;;;;10.00;5.80;;;;;;;11.80;90.12;101251.34;4991222;28;20053;-83
2021/10/25 12:47:16;;;;;;;9.18;6.05;;;;;;;11.82;90.62;101243.94;4992409;28;20038;-83
2021/10/25 12:49:56;;;;;;;11.18;6.68;;;;;;;11.82;90.89;101238.56;4994210;28;20121;-90
2021/10/25 12:52:29;;;;;;;9.25;5.75;;;;;;;11.84;90.97;101234.72;4983112;28;20049;-83
2021/10/25 12:55:02;;;;;;;11.45;6.43;;;;;;;11.87;91.15;101242.50;5010752;28;20498;-87
2021/10/25 12:57:33;;;;;;;10.65;6.53;;;;;;;11.86;90.88;101246.19;5008403;28;20053;-87
2021/10/25 13:00:11;;;;;;;12.57;6.55;;;;;;;11.87;90.67;101239.78;5005671;28;20050;-87
2021/10/25 13:02:41;;;;;;;12.00;7.10;;;;;;;11.91;91.02;101234.94;4991696;28;20073;-86
2021/10/25 13:05:13;;;;;;;9.68;6.18;;;;;;;11.89;90.47;101228.91;5006876;28;20058;-87
2021/10/25 13:07:54;;;;;;;9.07;6.00;;;;;;;11.88;90.43;101233.44;5003082;28;20104;-85
2021/10/25 13:10:25;;;;;;;9.23;6.38;;;;;;;11.91;90.48;101238.50;4989614;28;20045;-82